Time;durP1;ratioP1;P1;durP2;ratioP2;P2;SDS_P1;SDS_P2;PMS_P1;PMS_P2;Temp;Humidity;BMP_temperature;BMP_pressure;BME280_temperature;BME280_humidity;BME280_pressure;Samples;Min_cycle;Max_cycle;Signal;HPM_P1;HPM_P2
2021/10/15 00:00:26;;;;;;;24.07;18.63;;;11.30;99.90;;;;;;5001972;28;20471;-83
2021/10/15 00:03:12;;;;;;;23.48;17.50;;;11.40;99.90;;;;;;4985367;28;20263;-83
2021/10/15 00:05:56;;;;;;;22.73;18.15;;;11.30;99.90;;;;;;4990089;28;20045;-77
2021/10/15 00:08:40;;;;;;;19.92;17.10;;;11.30;99.90;;;;;;4993942;28;20053;-77
2021/10/15 00:11:24;;;;;;;21.13;17.58;;;11.30;99.90;;;;;;4992058;28;20501;-77
2021/10/15 00:14:08;;;;;;;21.55;17.35;;;11.30;99.90;;;;;;5008088;28;20091;-81
2021/10/15 00:16:53;;;;;;;19.83;16.53;;;11.30;99.90;;;;;;4972407;28;20088;-80
2021/10/15 00:19:37;;;;;;;21.73;17.55;;;11.20;99.90;;;;;;4989580;28;20044;-80
2021/10/15 00:22:21;;;;;;;19.23;16.33;;;11.30;99.90;;;;;;4981895;28;20045;-77
2021/10/15 00:25:06;;;;;;;20.95;16.67;;;11.20;99.90;;;;;;5005480;28;20076;-77
2021/10/15 00:27:51;;;;;;;21.77;17.15;;;11.20;99.90;;;;;;5006251;28;20044;-78
2021/10/15 00:30:35;;;;;;;19.05;16.95;;;11.20;99.90;;;;;;5005916;28;20518;-78
2021/10/15 00:33:19;;;;;;;19.90;16.67;;;11.10;99.90;;;;;;5006933;28;20494;-77
2021/10/15 00:36:03;;;;;;;24.20;17.00;;;11.10;99.90;;;;;;5013345;28;20048;-80
2021/10/15 00:38:47;;;;;;;21.85;17.77;;;11.00;99.90;;;;;;4999980;28;20040;-77
2021/10/15 00:41:31;;;;;;;19.63;16.45;;;11.00;99.90;;;;;;4997933;28;20107;-78
2021/10/15 00:44:16;;;;;;;21.63;16.48;;;11.00;99.90;;;;;;4998037;28;20048;-81
2021/10/15 00:47:00;;;;;;;21.80;16.70;;;10.90;99.90;;;;;;5013629;28;20074;-78
2021/10/15 00:49:44;;;;;;;20.60;17.65;;;10.90;99.90;;;;;;4985767;28;20292;-77
2021/10/15 00:52:29;;;;;;;21.08;16.70;;;10.80;99.90;;;;;;5000280;28;20109;-79
2021/10/15 00:55:13;;;;;;;21.45;15.93;;;10.80;99.90;;;;;;5012327;28;20121;-77
2021/10/15 00:57:57;;;;;;;18.05;15.70;;;11.00;99.90;;;;;;4982285;28;20097;-79
2021/10/15 01:00:41;;;;;;;19.15;16.15;;;10.90;99.90;;;;;;5011816;28;20040;-77
2021/10/15 01:03:26;;;;;;;21.52;17.30;;;10.90;99.90;;;;;;5030914;28;20045;-82
2021/10/15 01:06:10;;;;;;;22.17;16.55;;;11.00;99.90;;;;;;4999385;28;20052;-81
2021/10/15 01:08:55;;;;;;;19.40;16.45;;;10.90;99.90;;;;;;5027327;28;20092;-81
2021/10/15 01:11:39;;;;;;;18.55;15.77;;;11.00;99.90;;;;;;5001040;28;20090;-78
2021/10/15 01:14:24;;;;;;;20.75;16.88;;;11.10;99.90;;;;;;4998342;28;20080;-76
2021/10/15 01:17:08;;;;;;;18.10;15.80;;;11.10;99.90;;;;;;4986220;28;20060;-80
2021/10/15 01:19:54;;;;;;;18.33;14.98;;;11.10;99.90;;;;;;5011401;28;20068;-80
2021/10/15 01:22:38;;;;;;;17.15;14.90;;;11.10;99.90;;;;;;5011728;28;20080;-80
2021/10/15 01:25:24;;;;;;;17.48;15.13;;;11.20;99.90;;;;;;4998071;28;20037;-76
2021/10/15 01:28:08;;;;;;;20.50;15.85;;;11.20;99.90;;;;;;4996422;28;20064;-77
2021/10/15 01:30:53;;;;;;;18.02;14.98;;;11.20;99.90;;;;;;5008804;28;20041;-80
2021/10/15 01:33:37;;;;;;;17.00;14.32;;;11.30;99.90;;;;;;5011449;28;20137;-77
2021/10/15 01:36:25;;;;;;;20.02;14.10;;;11.40;99.90;;;;;;4981684;28;20076;-79
2021/10/15 01:39:09;;;;;;;16.48;14.25;;;11.40;99.90;;;;;;4996726;28;20032;-79
2021/10/15 01:41:54;;;;;;;16.02;13.27;;;11.40;99.90;;;;;;5007285;28;20095;-79
2021/10/15 01:44:38;;;;;;;16.98;13.98;;;11.40;99.90;;;;;;5014284;28;20045;-77
2021/10/15 01:47:27;;;;;;;21.33;12.90;;;11.50;99.90;;;;;;5013168;28;20067;-82
2021/10/15 01:50:12;;;;;;;15.43;13.13;;;11.50;99.90;;;;;;5022988;28;20041;-80
2021/10/15 01:52:56;;;;;;;17.20;12.20;;;11.50;99.90;;;;;;4980957;28;20113;-81
2021/10/15 01:55:41;;;;;;;18.85;12.43;;;11.50;99.90;;;;;;5025214;28;20076;-79
2021/10/15 01:58:25;;;;;;;14.73;11.65;;;11.60;99.90;;;;;;5012781;28;20068;-80
2021/10/15 02:01:09;;;;;;;14.00;12.23;;;11.60;99.90;;;;;;5011069;28;20564;-80
2021/10/15 02:03:54;;;;;;;18.00;12.60;;;11.60;99.90;;;;;;5010297;28;20120;-76
2021/10/15 02:06:37;;;;;;;14.80;11.30;;;11.60;99.90;;;;;;4981742;28;20057;-77
2021/10/15 02:09:22;;;;;;;14.90;11.15;;;11.60;99.90;;;;;;4991264;28;20045;-82
2021/10/15 02:12:06;;;;;;;13.90;12.47;;;11.60;99.90;;;;;;4989215;28;20041;-81
2021/10/15 02:14:51;;;;;;;14.45;11.35;;;11.70;99.90;;;;;;5010764;28;20087;-82
2021/10/15 02:17:35;;;;;;;15.13;11.38;;;11.70;99.90;;;;;;4996157;28;20049;-81
2021/10/15 02:20:20;;;;;;;14.82;11.65;;;11.70;99.90;;;;;;4997373;28;20040;-81
2021/10/15 02:23:04;;;;;;;13.70;11.02;;;11.70;99.90;;;;;;5010629;28;20061;-80
2021/10/15 02:25:49;;;;;;;15.35;11.45;;;11.70;99.90;;;;;;4994433;28;20135;-79
2021/10/15 02:28:33;;;;;;;15.93;11.32;;;11.70;99.90;;;;;;4994407;28;20049;-79
2021/10/15 02:31:17;;;;;;;13.88;10.90;;;11.70;99.90;;;;;;4994840;28;20037;-82
2021/10/15 02:34:02;;;;;;;14.10;10.80;;;11.70;99.90;;;;;;4980014;28;20160;-79
2021/10/15 02:36:46;;;;;;;12.00;10.70;;;11.70;99.90;;;;;;4995834;28;20112;-79
2021/10/15 02:39:31;;;;;;;11.27;10.10;;;11.70;99.90;;;;;;4993269;28;20109;-80
2021/10/15 02:42:15;;;;;;;15.67;10.67;;;11.70;99.90;;;;;;4993461;28;20048;-80
2021/10/15 02:44:59;;;;;;;13.15;11.18;;;11.70;99.90;;;;;;4995424;28;20087;-82
2021/10/15 02:47:43;;;;;;;12.80;11.32;;;11.70;99.90;;;;;;5005726;28;20512;-80
2021/10/15 02:50:28;;;;;;;13.75;10.43;;;11.60;99.90;;;;;;5005921;28;20422;-80
2021/10/15 02:53:12;;;;;;;13.77;10.63;;;11.70;99.90;;;;;;4992716;28;20461;-79
2021/10/15 02:55:56;;;;;;;12.30;10.02;;;11.70;99.90;;;;;;5005940;28;20062;-79
2021/10/15 02:58:40;;;;;;;12.55;10.25;;;11.70;99.90;;;;;;4993673;28;20437;-80
2021/10/15 03:01:24;;;;;;;12.73;8.95;;;11.80;99.90;;;;;;4979638;28;20418;-80
2021/10/15 03:04:09;;;;;;;9.73;8.73;;;11.80;99.90;;;;;;4994811;28;20040;-81
2021/10/15 03:06:53;;;;;;;10.23;8.57;;;11.80;99.90;;;;;;4974423;28;20080;-81
2021/10/15 03:09:37;;;;;;;9.27;8.37;;;12.00;99.90;;;;;;4974220;28;20037;-80
2021/10/15 03:12:21;;;;;;;10.17;8.07;;;11.90;99.90;;;;;;4976232;28;20112;-80
2021/10/15 03:15:07;;;;;;;12.00;9.07;;;12.00;99.90;;;;;;5000811;28;20042;-80
2021/10/15 03:17:51;;;;;;;11.93;8.93;;;12.00;99.90;;;;;;4987191;28;20390;-80
2021/10/15 03:20:35;;;;;;;10.68;8.68;;;12.00;99.90;;;;;;4974537;28;20227;-80
2021/10/15 03:23:20;;;;;;;13.15;8.45;;;12.00;99.90;;;;;;4987805;28;20505;-80
2021/10/15 03:26:04;;;;;;;10.40;8.60;;;12.00;99.90;;;;;;4974744;28;20061;-81
2021/10/15 03:28:48;;;;;;;11.60;9.00;;;12.00;99.90;;;;;;4987715;28;20046;-80
2021/10/15 03:31:32;;;;;;;14.02;8.95;;;12.00;99.90;;;;;;5002607;28;20045;-81
2021/10/15 03:34:16;;;;;;;9.93;8.93;;;12.00;99.90;;;;;;4989005;28;20037;-80
2021/10/15 03:37:00;;;;;;;10.47;8.50;;;12.10;99.90;;;;;;5001901;28;20065;-80
2021/10/15 03:39:44;;;;;;;10.48;8.48;;;12.10;99.90;;;;;;4986389;28;20292;-80
2021/10/15 03:42:28;;;;;;;10.98;8.85;;;12.00;99.90;;;;;;4973117;28;20110;-81
2021/10/15 03:45:13;;;;;;;11.23;9.20;;;12.00;99.90;;;;;;4986942;28;20033;-81
2021/10/15 03:47:57;;;;;;;9.60;8.20;;;12.00;99.90;;;;;;5000884;28;20044;-80
2021/10/15 03:50:41;;;;;;;11.75;7.90;;;12.00;99.90;;;;;;4986413;28;20041;-80
2021/10/15 03:53:25;;;;;;;10.87;8.77;;;12.10;99.90;;;;;;4994729;28;20084;-78
2021/10/15 03:56:10;;;;;;;10.93;8.67;;;12.10;99.90;;;;;;4994535;28;20268;-76
2021/10/15 03:58:54;;;;;;;11.57;9.02;;;12.10;99.90;;;;;;5005879;28;20252;-76
2021/10/15 04:01:38;;;;;;;11.45;8.48;;;12.10;99.90;;;;;;5021186;28;20040;-76
2021/10/15 04:04:22;;;;;;;12.90;8.65;;;12.20;99.90;;;;;;4992263;28;20040;-77
2021/10/15 04:07:06;;;;;;;8.35;7.50;;;12.20;99.90;;;;;;4985550;28;20076;-77
2021/10/15 04:09:51;;;;;;;11.73;8.40;;;12.10;99.90;;;;;;4988766;28;20473;-77
2021/10/15 04:12:35;;;;;;;8.35;7.35;;;12.10;99.90;;;;;;4973316;28;20260;-78
2021/10/15 04:15:19;;;;;;;11.00;7.50;;;12.10;99.90;;;;;;4971674;28;20037;-77
2021/10/15 04:18:04;;;;;;;9.77;7.03;;;12.10;99.90;;;;;;5002953;28;20037;-77
2021/10/15 04:20:48;;;;;;;9.02;6.53;;;12.20;99.90;;;;;;4986163;28;20041;-77
2021/10/15 04:23:32;;;;;;;11.75;7.30;;;12.10;99.90;;;;;;4985467;28;20041;-77
2021/10/15 04:26:17;;;;;;;11.05;7.28;;;12.10;99.90;;;;;;4986381;28;20137;-77
2021/10/15 04:29:01;;;;;;;8.50;7.22;;;12.10;99.90;;;;;;4987933;28;20390;-78
2021/10/15 04:31:45;;;;;;;9.45;6.63;;;12.20;99.90;;;;;;4972099;28;20105;-77
2021/10/15 04:34:29;;;;;;;7.55;6.30;;;12.20;99.90;;;;;;4994728;28;20115;-77
2021/10/15 04:37:14;;;;;;;9.88;5.97;;;12.10;99.90;;;;;;5008566;28;20069;-78
2021/10/15 04:39:58;;;;;;;9.07;6.80;;;12.10;99.90;;;;;;5000377;28;20568;-78
2021/10/15 04:42:42;;;;;;;11.65;6.88;;;12.10;99.90;;;;;;5000588;28;20273;-77
2021/10/15 04:45:26;;;;;;;9.73;6.50;;;12.10;99.90;;;;;;4984500;28;20045;-81
2021/10/15 04:48:10;;;;;;;8.00;6.53;;;12.20;99.90;;;;;;4972372;28;20053;-83
2021/10/15 04:50:55;;;;;;;10.73;8.63;;;12.30;99.90;;;;;;4986233;28;20042;-81
2021/10/15 04:53:39;;;;;;;7.32;6.15;;;12.20;99.90;;;;;;4987773;28;20042;-77
2021/10/15 04:56:23;;;;;;;9.00;7.47;;;12.20;99.90;;;;;;4978127;28;20033;-78
2021/10/15 04:59:08;;;;;;;10.45;7.03;;;12.20;99.90;;;;;;5001293;28;20517;-76
2021/10/15 05:01:52;;;;;;;7.73;6.77;;;12.20;99.90;;;;;;4991699;28;20049;-78
2021/10/15 05:04:39;;;;;;;9.98;7.40;;;12.10;99.90;;;;;;4993790;28;20087;-77
2021/10/15 05:07:25;;;;;;;10.95;7.53;;;12.20;99.90;;;;;;4981168;28;20029;-77
2021/10/15 05:10:09;;;;;;;10.25;6.70;;;12.20;99.90;;;;;;5006337;28;20544;-77
2021/10/15 05:12:55;;;;;;;7.68;6.13;;;12.20;99.90;;;;;;4992225;28;20060;-76
2021/10/15 05:15:43;;;;;;;9.35;5.68;;;12.30;99.90;;;;;;5000077;28;20052;-77
2021/10/15 05:18:27;;;;;;;7.50;5.47;;;12.30;99.90;;;;;;4988752;28;20037;-77
2021/10/15 05:21:11;;;;;;;8.57;5.83;;;12.30;99.90;;;;;;5005222;28;20037;-79
2021/10/15 05:23:55;;;;;;;8.37;5.97;;;12.30;99.90;;;;;;4990376;28;20065;-78
2021/10/15 05:26:39;;;;;;;7.63;5.13;;;12.20;99.90;;;;;;5010990;28;20272;-78
2021/10/15 05:29:23;;;;;;;7.65;5.50;;;12.30;99.90;;;;;;4999540;28;20048;-76
2021/10/15 05:32:08;;;;;;;7.88;5.57;;;12.30;99.90;;;;;;5044857;28;20517;-77
2021/10/15 05:34:52;;;;;;;11.13;5.10;;;12.20;99.90;;;;;;5003143;28;20059;-77
2021/10/15 05:37:36;;;;;;;11.25;5.93;;;12.30;99.90;;;;;;5030795;28;20043;-75
2021/10/15 05:40:20;;;;;;;8.15;5.18;;;12.30;99.90;;;;;;5016349;28;20048;-76
2021/10/15 05:43:04;;;;;;;6.32;4.70;;;12.20;99.90;;;;;;5017445;28;20080;-77
2021/10/15 05:45:49;;;;;;;6.00;4.82;;;12.30;99.90;;;;;;5031596;28;20040;-77
2021/10/15 05:48:33;;;;;;;5.60;4.60;;;12.30;99.90;;;;;;5016810;28;20056;-77
2021/10/15 05:51:17;;;;;;;5.15;4.65;;;12.30;99.90;;;;;;5017670;28;20032;-78
2021/10/15 05:54:03;;;;;;;6.20;5.10;;;12.20;99.90;;;;;;5017993;28;20037;-76
2021/10/15 05:59:50;;;;;;;9.32;5.38;;;12.20;99.90;;;;;;5030396;28;20068;-76
2021/10/15 06:02:36;;;;;;;8.20;4.80;;;12.30;99.90;;;;;;5046575;28;20056;-77
2021/10/15 06:14:28;;;;;;;8.25;5.57;;;12.30;99.90;;;;;;5023907;28;20072;-80
2021/10/15 06:17:15;;;;;;;6.38;5.22;;;12.40;99.90;;;;;;4997752;28;20117;-80
2021/10/15 06:19:59;;;;;;;7.20;5.65;;;12.30;99.90;;;;;;4995515;28;20516;-80
2021/10/15 06:22:43;;;;;;;8.00;6.03;;;12.40;99.90;;;;;;4995248;28;20179;-79
2021/10/15 06:25:27;;;;;;;7.37;5.77;;;12.40;99.90;;;;;;4980120;28;20045;-80
2021/10/15 06:28:11;;;;;;;7.63;5.80;;;12.50;99.90;;;;;;4979863;28;20056;-81
2021/10/15 06:30:56;;;;;;;9.82;6.03;;;12.40;99.90;;;;;;5007726;28;20083;-78
2021/10/15 06:33:40;;;;;;;7.07;5.50;;;12.50;99.90;;;;;;4994805;28;20133;-81
2021/10/15 06:36:24;;;;;;;8.30;5.70;;;12.50;99.90;;;;;;5010429;28;20485;-82
2021/10/15 06:39:08;;;;;;;8.85;5.50;;;12.50;99.90;;;;;;4997875;28;20033;-82
2021/10/15 06:41:52;;;;;;;6.00;5.40;;;12.50;99.90;;;;;;5011040;28;20394;-82
2021/10/15 06:44:36;;;;;;;7.32;6.05;;;12.50;99.90;;;;;;5023490;28;20045;-83
2021/10/15 06:47:20;;;;;;;8.07;6.22;;;12.50;99.90;;;;;;4982383;28;20037;-82
2021/10/15 06:50:06;;;;;;;8.20;6.20;;;12.40;99.90;;;;;;5023904;28;20073;-81
2021/10/15 06:52:50;;;;;;;;;;;12.40;99.90;;;;;;5009412;28;20401;-82
2021/10/15 06:55:34;;;;;;;11.57;5.85;;;12.40;99.90;;;;;;4995494;28;19974;-82
2021/10/15 06:58:19;;;;;;;9.98;6.35;;;12.30;99.90;;;;;;5009503;28;20091;-82
2021/10/15 07:01:03;;;;;;;6.43;5.63;;;12.30;99.90;;;;;;4996376;28;20115;-82
2021/10/15 07:03:48;;;;;;;7.47;5.45;;;12.40;99.90;;;;;;5007660;28;20260;-82
2021/10/15 07:06:32;;;;;;;7.63;6.20;;;12.50;99.90;;;;;;5007010;28;20084;-82
2021/10/15 07:09:16;;;;;;;8.13;5.97;;;12.50;99.90;;;;;;4994568;28;20068;-82
2021/10/15 07:12:01;;;;;;;8.57;5.60;;;12.50;99.90;;;;;;4980939;28;20361;-77
2021/10/15 07:14:45;;;;;;;9.15;6.15;;;12.50;99.90;;;;;;5006656;28;20110;-79
2021/10/15 07:17:29;;;;;;;7.82;5.85;;;12.50;99.90;;;;;;4994087;28;20052;-76
2021/10/15 07:20:13;;;;;;;7.57;6.05;;;12.60;99.90;;;;;;5007243;28;20117;-76
2021/10/15 07:22:57;;;;;;;8.80;5.63;;;12.60;99.70;;;;;;4993655;28;20476;-78
2021/10/15 07:25:42;;;;;;;6.53;5.50;;;12.60;99.80;;;;;;5008227;28;20077;-77
2021/10/15 07:28:27;;;;;;;7.28;5.50;;;12.60;99.50;;;;;;5007048;28;20080;-78
2021/10/15 07:31:11;;;;;;;7.97;5.35;;;12.60;98.80;;;;;;5005788;28;20041;-76
2021/10/15 07:33:56;;;;;;;7.72;5.22;;;12.70;98.90;;;;;;4993935;28;20049;-76
2021/10/15 07:36:40;;;;;;;6.80;4.93;;;12.80;98.60;;;;;;5022523;28;20400;-81
2021/10/15 07:39:24;;;;;;;6.90;5.50;;;12.90;98.10;;;;;;4993976;28;20041;-81
2021/10/15 07:42:08;;;;;;;6.38;5.70;;;13.00;97.90;;;;;;4994830;28;20037;-80
2021/10/15 07:44:52;;;;;;;7.05;5.47;;;13.00;97.80;;;;;;4995343;28;20233;-81
2021/10/15 07:47:36;;;;;;;7.38;5.32;;;13.10;97.80;;;;;;4994283;28;20036;-81
2021/10/15 07:50:22;;;;;;;10.75;5.88;;;13.00;97.90;;;;;;4994487;28;20060;-81
2021/10/15 07:53:07;;;;;;;6.68;5.63;;;13.00;98.00;;;;;;5008586;28;20052;-80
2021/10/15 07:55:51;;;;;;;8.23;5.90;;;13.10;98.10;;;;;;5008393;28;20045;-77
2021/10/15 07:58:35;;;;;;;9.87;6.53;;;13.00;97.80;;;;;;5007492;28;20110;-77
2021/10/15 08:01:19;;;;;;;7.00;5.80;;;13.00;98.20;;;;;;4993069;28;20042;-77
2021/10/15 08:04:04;;;;;;;8.27;5.95;;;13.20;98.10;;;;;;4989921;28;20042;-79
2021/10/15 08:06:50;;;;;;;7.65;5.70;;;13.10;98.20;;;;;;4988201;28;20077;-78
2021/10/15 08:09:34;;;;;;;9.15;5.43;;;13.20;98.30;;;;;;5004182;28;20403;-77
2021/10/15 08:12:18;;;;;;;7.72;6.00;;;13.10;97.50;;;;;;4961805;28;20042;-78
2021/10/15 08:15:05;;;;;;;7.18;5.13;;;13.00;97.80;;;;;;4992532;28;20393;-78
2021/10/15 08:17:50;;;;;;;6.22;5.38;;;13.00;98.10;;;;;;4995715;28;20036;-78
2021/10/15 08:20:35;;;;;;;8.10;5.50;;;13.00;98.10;;;;;;5020859;28;20056;-78
2021/10/15 08:23:19;;;;;;;7.97;5.53;;;12.90;98.10;;;;;;5007342;28;20070;-77
2021/10/15 08:26:03;;;;;;;9.38;5.95;;;12.90;97.70;;;;;;5022947;28;20072;-77
2021/10/15 08:28:47;;;;;;;7.63;6.03;;;12.70;97.70;;;;;;5005725;28;20040;-80
2021/10/15 08:31:32;;;;;;;7.87;5.70;;;12.70;97.80;;;;;;4993851;28;20085;-79
2021/10/15 08:34:17;;;;;;;7.47;5.72;;;12.80;98.20;;;;;;5020249;28;20087;-78
2021/10/15 08:37:03;;;;;;;7.95;5.85;;;12.80;97.90;;;;;;5023251;28;20038;-79
2021/10/15 08:39:47;;;;;;;;;;;12.70;97.80;;;;;;4994220;28;20091;-78
2021/10/15 08:42:43;;;;;;;7.22;5.70;;;12.70;97.90;;;;;;5021540;28;19952;-80
2021/10/15 08:45:30;;;;;;;8.20;5.80;;;12.70;98.10;;;;;;5004910;28;20113;-79
2021/10/15 08:48:14;;;;;;;8.63;6.22;;;12.80;98.10;;;;;;5005945;28;20104;-81
2021/10/15 08:50:59;;;;;;;9.52;5.95;;;12.80;97.80;;;;;;5004181;28;20037;-80
2021/10/15 08:53:52;;;;;;;9.18;5.97;;;12.80;97.50;;;;;;5003021;28;20118;-81
2021/10/15 08:56:40;;;;;;;7.70;5.60;;;12.80;97.90;;;;;;5008116;28;20086;-82
2021/10/15 08:59:42;;;;;;;7.95;6.30;;;12.80;97.60;;;;;;5008037;28;20080;-78
2021/10/15 09:02:27;;;;;;;8.25;6.18;;;12.70;97.30;;;;;;5007933;28;20025;-82
2021/10/15 09:05:11;;;;;;;11.18;6.45;;;12.70;97.50;;;;;;5021764;28;20509;-81
2021/10/15 09:07:55;;;;;;;9.32;6.72;;;12.60;97.80;;;;;;4993733;28;20037;-82
2021/10/15 09:10:39;;;;;;;9.60;6.65;;;12.60;97.60;;;;;;4993957;28;20041;-81
2021/10/15 09:13:23;;;;;;;9.00;6.67;;;12.60;97.80;;;;;;5022648;28;20056;-80
2021/10/15 09:16:08;;;;;;;9.27;6.38;;;12.60;97.60;;;;;;4997177;28;20452;-80
2021/10/15 09:18:52;;;;;;;12.40;6.37;;;12.60;97.80;;;;;;5025335;28;20087;-79
2021/10/15 09:21:36;;;;;;;12.07;7.10;;;12.60;97.80;;;;;;5000330;28;20288;-78
2021/10/15 09:24:38;;;;;;;9.60;6.45;;;12.60;97.70;;;;;;4996858;28;20056;-79
2021/10/15 09:27:36;;;;;;;9.05;5.75;;;12.60;97.50;;;;;;5014125;28;20040;-78
2021/10/15 09:30:23;;;;;;;9.25;5.70;;;12.70;97.40;;;;;;5012598;28;20132;-80
2021/10/15 09:33:08;;;;;;;10.48;6.28;;;12.60;97.60;;;;;;5026289;28;20036;-83
2021/10/15 09:36:07;;;;;;;8.18;5.93;;;12.70;97.50;;;;;;5016853;28;20032;-81
2021/10/15 09:38:52;;;;;;;9.52;6.38;;;12.80;97.60;;;;;;5035515;28;20049;-83
2021/10/15 09:41:37;;;;;;;13.85;6.85;;;12.80;97.40;;;;;;5011452;28;20044;-80
2021/10/15 09:44:33;;;;;;;9.88;5.75;;;12.80;97.50;;;;;;5011135;28;20044;-80
2021/10/15 09:47:26;;;;;;;8.77;5.90;;;12.90;97.40;;;;;;5010281;28;20092;-79
2021/10/15 09:50:13;;;;;;;11.02;6.45;;;12.90;97.10;;;;;;5011603;28;20049;-81
2021/10/15 09:53:03;;;;;;;8.38;6.18;;;12.90;97.30;;;;;;5010201;28;20092;-81
2021/10/15 09:55:47;;;;;;;12.30;6.30;;;12.90;97.20;;;;;;5012028;28;20037;-80
2021/10/15 09:58:31;;;;;;;8.20;6.07;;;13.00;97.30;;;;;;5011456;28;20041;-80
2021/10/15 10:01:15;;;;;;;9.05;5.70;;;12.90;97.50;;;;;;4996194;28;20044;-79
2021/10/15 10:04:00;;;;;;;8.38;5.75;;;13.00;97.20;;;;;;5010199;28;20041;-80
2021/10/15 10:06:45;;;;;;;10.13;6.03;;;13.10;97.50;;;;;;5024844;28;20112;-77
2021/10/15 10:09:30;;;;;;;9.15;6.43;;;13.20;97.30;;;;;;5010330;28;20048;-79
2021/10/15 10:12:15;;;;;;;9.53;6.37;;;13.30;97.40;;;;;;5010475;28;20056;-80
2021/10/15 10:14:59;;;;;;;;;;;13.20;97.10;;;;;;5023821;28;20284;-79
2021/10/15 10:17:46;;;;;;;9.82;5.90;;;13.10;97.40;;;;;;5009601;28;19933;-78
2021/10/15 10:20:32;;;;;;;7.25;5.65;;;13.20;97.00;;;;;;5025154;28;20090;-77
2021/10/15 10:23:37;;;;;;;9.25;5.75;;;13.20;97.30;;;;;;5010363;28;20426;-79
2021/10/15 10:26:22;;;;;;;8.93;5.53;;;13.20;97.10;;;;;;5011715;28;20037;-79
2021/10/15 10:29:07;;;;;;;7.32;5.97;;;13.30;97.00;;;;;;5024703;28;20036;-81
2021/10/15 10:31:53;;;;;;;8.43;5.57;;;13.50;97.00;;;;;;5010633;28;20129;-78
2021/10/15 10:34:37;;;;;;;9.20;6.22;;;13.60;96.90;;;;;;5015786;28;20069;-82
2021/10/15 10:37:22;;;;;;;10.13;6.35;;;13.50;96.80;;;;;;5009948;28;20117;-81
2021/10/15 10:40:10;;;;;;;9.45;6.38;;;13.40;96.70;;;;;;5012007;28;20091;-81
2021/10/15 10:43:04;;;;;;;9.00;6.68;;;13.60;96.70;;;;;;5011447;28;20515;-78
2021/10/15 10:46:11;;;;;;;9.02;6.70;;;13.40;96.60;;;;;;5027260;28;20425;-77
2021/10/15 10:48:55;;;;;;;11.35;7.10;;;13.30;97.00;;;;;;5009944;28;20059;-79
2021/10/15 10:51:39;;;;;;;12.60;6.93;;;13.20;97.40;;;;;;5010295;28;20092;-80
2021/10/15 10:54:27;;;;;;;11.60;7.33;;;13.10;97.60;;;;;;5025951;28;20041;-82
2021/10/15 10:57:17;;;;;;;9.77;6.82;;;13.10;97.30;;;;;;5009345;28;20315;-80
2021/10/15 11:00:22;;;;;;;12.65;7.55;;;13.00;97.60;;;;;;5008027;28;20124;-80
2021/10/15 11:03:06;;;;;;;11.88;7.35;;;13.00;97.60;;;;;;5021657;28;20061;-78
2021/10/15 11:05:52;;;;;;;10.65;7.20;;;13.00;97.80;;;;;;4995978;28;20041;-78
2021/10/15 11:08:37;;;;;;;9.55;7.25;;;13.10;97.90;;;;;;5022784;28;20100;-78
2021/10/15 11:11:24;;;;;;;17.38;9.20;;;13.10;97.90;;;;;;5008697;28;20084;-78
2021/10/15 11:14:20;;;;;;;11.18;7.88;;;12.90;98.10;;;;;;5023775;28;20033;-78
2021/10/15 11:17:11;;;;;;;13.52;8.18;;;12.90;98.20;;;;;;5021137;28;20065;-78
2021/10/15 11:20:13;;;;;;;10.80;7.72;;;12.90;98.20;;;;;;5007706;28;20599;-80
2021/10/15 11:23:00;;;;;;;14.73;8.68;;;13.00;98.40;;;;;;5009403;28;20052;-80
2021/10/15 11:25:48;;;;;;;16.75;9.30;;;13.00;98.70;;;;;;5009200;28;20184;-82
2021/10/15 11:28:33;;;;;;;10.50;8.38;;;12.90;98.50;;;;;;5010414;28;20045;-79
2021/10/15 11:31:17;;;;;;;16.63;8.52;;;12.90;98.80;;;;;;5008823;28;20444;-81
2021/10/15 11:34:10;;;;;;;15.65;9.27;;;12.90;98.80;;;;;;5008726;28;20083;-81
2021/10/15 11:37:04;;;;;;;12.30;8.70;;;12.90;98.90;;;;;;5007816;28;20551;-78
2021/10/15 11:39:48;;;;;;;16.35;8.25;;;12.90;98.70;;;;;;5009379;28;20037;-80
2021/10/15 11:42:34;;;;;;;12.50;8.17;;;12.90;98.40;;;;;;5007972;28;20114;-77
2021/10/15 11:45:30;;;;;;;13.35;9.18;;;12.90;98.60;;;;;;5007383;28;20378;-78
2021/10/15 11:48:29;;;;;;;17.15;8.73;;;12.90;98.40;;;;;;5020961;28;20033;-77
2021/10/15 11:51:24;;;;;;;14.25;8.48;;;12.80;98.60;;;;;;5021263;28;20080;-80
2021/10/15 11:54:09;;;;;;;;;;;12.90;98.70;;;;;;5022708;28;20037;-82
2021/10/15 11:56:53;;;;;;;12.63;8.60;;;12.80;98.90;;;;;;5022948;28;19916;-79
2021/10/15 11:59:38;;;;;;;18.00;8.75;;;12.80;99.10;;;;;;5009449;28;20041;-79
2021/10/15 12:02:22;;;;;;;11.15;8.52;;;12.70;98.90;;;;;;5008574;28;20057;-78
2021/10/15 12:05:06;;;;;;;10.30;8.10;;;12.80;98.80;;;;;;5023565;28;20044;-80
2021/10/15 12:07:50;;;;;;;15.55;9.93;;;12.80;98.70;;;;;;5008801;28;20255;-79
2021/10/15 12:10:35;;;;;;;14.10;8.30;;;12.80;98.90;;;;;;5006720;28;20433;-77
2021/10/15 12:13:19;;;;;;;12.90;8.80;;;12.90;98.80;;;;;;5005291;28;20264;-77
2021/10/15 12:16:24;;;;;;;12.35;8.27;;;12.90;98.80;;;;;;5019270;28;20410;-76
2021/10/15 12:19:17;;;;;;;12.00;7.90;;;12.90;98.70;;;;;;5023736;28;20033;-79
2021/10/15 12:22:20;;;;;;;15.52;9.15;;;13.00;98.70;;;;;;5008903;28;20056;-78
2021/10/15 12:25:05;;;;;;;10.95;8.50;;;13.00;98.60;;;;;;5009477;28;20041;-77
2021/10/15 12:27:49;;;;;;;11.63;5.80;;;12.90;99.00;;;;;;4994527;28;20040;-77
2021/10/15 12:30:33;;;;;;;4.27;2.83;;;12.70;99.20;;;;;;5010437;28;20041;-78
2021/10/15 12:33:17;;;;;;;4.50;2.40;;;12.30;99.90;;;;;;5012404;28;20045;-80
2021/10/15 12:36:22;;;;;;;2.53;2.28;;;12.00;99.90;;;;;;5027162;28;20080;-78
2021/10/15 12:39:15;;;;;;;2.60;2.40;;;11.60;99.90;;;;;;5012075;28;20033;-77
2021/10/15 12:42:17;;;;;;;3.70;2.35;;;11.40;99.90;;;;;;5027235;28;20452;-78
2021/10/15 12:45:15;;;;;;;3.72;2.42;;;11.50;99.90;;;;;;5010111;28;20084;-77
2021/10/15 12:48:05;;;;;;;2.47;2.22;;;11.50;99.90;;;;;;5009696;28;20392;-77
2021/10/15 12:51:03;;;;;;;2.60;2.28;;;11.40;99.90;;;;;;5025739;28;20028;-77
2021/10/15 12:53:50;;;;;;;5.22;2.35;;;11.30;99.90;;;;;;5012473;28;20065;-79
2021/10/15 12:56:36;;;;;;;3.70;2.08;;;11.40;99.90;;;;;;5011815;28;20041;-77
2021/10/15 12:59:20;;;;;;;2.65;2.10;;;11.60;99.90;;;;;;5009375;28;20064;-77
2021/10/15 13:02:05;;;;;;;2.17;1.80;;;11.60;99.90;;;;;;5009688;28;20064;-77
2021/10/15 13:04:50;;;;;;;3.08;2.33;;;11.70;99.90;;;;;;5020185;28;20069;-78
2021/10/15 13:07:35;;;;;;;3.47;2.35;;;11.50;99.90;;;;;;4993545;28;20468;-77
2021/10/15 13:10:21;;;;;;;2.50;2.30;;;11.60;99.90;;;;;;5007790;28;20074;-76
2021/10/15 13:13:05;;;;;;;5.30;2.28;;;11.60;99.90;;;;;;5013145;28;20041;-79
2021/10/15 13:15:50;;;;;;;4.45;2.60;;;11.60;99.90;;;;;;4977875;28;20042;-81
2021/10/15 13:18:34;;;;;;;4.93;2.55;;;11.70;99.90;;;;;;4989929;28;20044;-81
2021/10/15 13:21:18;;;;;;;3.40;2.72;;;11.90;99.90;;;;;;4991668;28;20037;-82
2021/10/15 13:24:03;;;;;;;4.25;2.50;;;12.00;99.90;;;;;;4990761;28;20517;-77
2021/10/15 13:26:47;;;;;;;4.88;2.17;;;12.00;99.90;;;;;;5016460;28;20085;-78
2021/10/15 13:29:33;;;;;;;2.95;2.05;;;12.10;99.90;;;;;;4996269;28;20061;-78
2021/10/15 13:32:17;;;;;;;3.17;2.03;;;12.20;99.90;;;;;;4990308;28;20044;-79
2021/10/15 13:35:03;;;;;;;2.42;2.00;;;12.10;99.90;;;;;;4977443;28;20044;-78
2021/10/15 13:38:00;;;;;;;7.07;2.60;;;12.20;99.90;;;;;;5010384;28;20108;-79
2021/10/15 13:46:48;;;;;;;3.35;2.47;;;11.60;99.90;;;;;;5025451;28;20451;-81
2021/10/15 13:52:27;;;;;;;2.85;2.33;;;11.70;99.90;;;;;;5023407;28;20069;-79
2021/10/15 13:55:11;;;;;;;3.00;2.35;;;11.80;99.90;;;;;;5006657;28;20155;-78
2021/10/15 13:57:57;;;;;;;3.70;2.20;;;11.80;99.90;;;;;;5007553;28;20117;-77
2021/10/15 14:00:44;;;;;;;3.13;2.10;;;11.90;99.90;;;;;;5010592;28;20044;-77
2021/10/15 14:06:16;;;;;;;3.08;2.55;;;12.00;99.70;;;;;;5021607;28;20098;-78
2021/10/15 14:09:01;;;;;;;2.20;2.00;;;12.00;99.90;;;;;;5007638;28;20098;-78
2021/10/15 14:11:45;;;;;;;4.17;2.00;;;12.00;99.80;;;;;;5021327;28;20045;-78
2021/10/15 14:14:29;;;;;;;3.00;2.25;;;12.00;99.50;;;;;;5028628;28;20267;-79
2021/10/15 14:17:13;;;;;;;2.67;2.30;;;12.00;99.90;;;;;;4997616;28;20413;-79
2021/10/15 14:19:57;;;;;;;2.80;2.20;;;12.00;99.60;;;;;;5008291;28;20100;-80
2021/10/15 14:22:41;;;;;;;2.58;2.20;;;12.00;99.70;;;;;;5009722;28;20033;-78
2021/10/15 14:25:25;;;;;;;3.63;2.33;;;12.10;99.40;;;;;;4996420;28;20041;-77
2021/10/15 14:28:12;;;;;;;2.50;2.30;;;12.80;98.50;;;;;;4999099;28;20040;-79
2021/10/15 14:30:57;;;;;;;2.90;1.92;;;13.50;96.70;;;;;;4998508;28;20045;-78
2021/10/15 14:33:41;;;;;;;2.43;1.90;;;14.00;95.70;;;;;;5013327;28;20440;-80
2021/10/15 14:36:28;;;;;;;2.38;2.13;;;14.10;95.50;;;;;;5023215;28;20126;-79
2021/10/15 14:39:13;;;;;;;3.25;2.00;;;14.50;95.00;;;;;;5009533;28;20111;-80